Terminal Aerodrome Forecast
Issued by NWS Boston, MA

Home | Current Version | Previous Version | Text Only | Print | Product List | Glossary On
Versions: 1 2 3 4 5 6 7 8 9 10 11 12 13 14 15 16 17 18 19 20 21 22 23 24 25 26 27 28 29 30 31 32 33 34 35 36
000
FTUS41 KBOX 251741
TAFORH
TAF
KORH 251741Z 2518/2618 06015G23KT P6SM -SHRA OVC012
     FM251900 07010G23KT 3SM -SHRA BR OVC008
     FM260000 06011KT 2SM -SHRA BR OVC005
     FM260200 06008KT 1SM -SHRA BR OVC003
     FM261400 04006KT 3SM -SHRA BR OVC003
     FM261700 07005KT 4SM -SHRA BR OVC008=

USA.gov is the U.S. government's official web portal to all federal, state and local government web resources and services.